Time;durP1;ratioP1;P1;durP2;ratioP2;P2;SDS_P1;SDS_P2;PMS_P1;PMS_P2;Temp;Humidity;BMP_temperature;BMP_pressure;BME280_temperature;BME280_humidity;BME280_pressure;Samples;Min_cycle;Max_cycle;Signal;HPM_P1;HPM_P2
2023/03/19 00:01:52;;;;;;;8.07;0.70;;;9.10;99.90;;;;;;5117644;27;20224;-68
2023/03/19 00:04:18;;;;;;;9.27;0.90;;;9.50;99.90;;;;;;5126817;27;20226;-67
2023/03/19 00:06:43;;;;;;;2.83;0.80;;;9.10;99.90;;;;;;5131640;27;20183;-67
2023/03/19 00:09:09;;;;;;;4.50;0.90;;;9.80;99.90;;;;;;5116086;27;20212;-67
2023/03/19 00:11:35;;;;;;;3.70;0.73;;;9.00;99.90;;;;;;5112770;27;20175;-67
2023/03/19 00:14:00;;;;;;;7.47;0.93;;;9.00;99.90;;;;;;5117273;27;20657;-67
2023/03/19 00:16:26;;;;;;;7.47;0.93;;;9.10;99.90;;;;;;5132438;27;20533;-68
2023/03/19 00:18:52;;;;;;;2.50;0.70;;;8.90;99.90;;;;;;5132409;27;20214;-68
2023/03/19 00:21:18;;;;;;;6.93;1.03;;;8.80;99.90;;;;;;5132266;27;20181;-68
2023/03/19 00:23:43;;;;;;;6.80;1.17;;;8.90;99.90;;;;;;5132489;27;20176;-68
2023/03/19 00:26:10;;;;;;;4.43;0.90;;;8.80;99.90;;;;;;5129093;27;20244;-68
2023/03/19 00:28:36;;;;;;;6.13;1.30;;;8.70;99.90;;;;;;5106904;28;20738;-69
2023/03/19 00:31:11;;;;;;;4.20;0.80;;;8.70;99.90;;;;;;5097488;27;20274;-68
2023/03/19 00:33:37;;;;;;;6.63;0.80;;;8.60;99.90;;;;;;5131322;27;20563;-68
2023/03/19 00:36:05;;;;;;;3.00;0.90;;;8.70;99.90;;;;;;5132040;27;20228;-67
2023/03/19 00:38:31;;;;;;;6.97;1.00;;;8.60;99.90;;;;;;5129328;27;20293;-67
2023/03/19 00:40:58;;;;;;;4.37;1.10;;;;;;;;;;5120747;27;20746;-67
2023/03/19 00:43:24;;;;;;;8.33;1.17;;;8.50;99.90;;;;;;5112846;27;20717;-68
2023/03/19 00:45:50;;;;;;;7.70;1.50;;;8.30;99.90;;;;;;5112949;27;20199;-67
2023/03/19 00:48:16;;;;;;;11.40;1.10;;;8.40;99.90;;;;;;5127203;27;20209;-67
2023/03/19 00:50:42;;;;;;;6.53;1.30;;;;;;;;;;5113894;27;20253;-67
2023/03/19 00:53:08;;;;;;;8.43;1.00;;;;;;;;;;5111581;27;20167;-67
2023/03/19 00:55:34;;;;;;;2.70;1.00;;;8.20;99.90;;;;;;5110946;28;20210;-67
2023/03/19 00:58:01;;;;;;;5.77;0.80;;;8.20;99.90;;;;;;5113625;27;20708;-67
2023/03/19 01:00:27;;;;;;;6.80;1.00;;;8.10;99.90;;;;;;5130632;27;20167;-67
2023/03/19 01:02:53;;;;;;;4.07;0.67;;;8.10;99.90;;;;;;5112781;27;20187;-67
2023/03/19 01:05:19;;;;;;;7.30;1.00;;;8.10;99.90;;;;;;5128198;27;20171;-67
2023/03/19 01:07:44;;;;;;;12.27;1.00;;;8.10;99.90;;;;;;5094280;28;20247;-67
2023/03/19 01:10:10;;;;;;;7.47;1.30;;;8.10;99.90;;;;;;5112958;27;20183;-67
2023/03/19 01:12:36;;;;;;;6.87;1.07;;;8.00;99.90;;;;;;5120205;27;20183;-67
2023/03/19 01:15:03;;;;;;;4.07;0.83;;;8.00;99.90;;;;;;5118374;27;20660;-67
2023/03/19 01:17:28;;;;;;;5.20;0.87;;;7.90;99.90;;;;;;5129207;27;20210;-67
2023/03/19 01:19:55;;;;;;;9.67;0.93;;;7.90;99.90;;;;;;5120920;27;20171;-67
2023/03/19 01:22:20;;;;;;;9.30;1.17;;;7.90;99.90;;;;;;5132757;27;20204;-68
2023/03/19 01:24:46;;;;;;;7.13;1.10;;;7.90;99.90;;;;;;5125598;27;20614;-68
2023/03/19 01:27:12;;;;;;;9.43;0.93;;;7.80;99.90;;;;;;5101480;28;20171;-68
2023/03/19 01:29:38;;;;;;;6.33;1.30;;;7.80;99.90;;;;;;5111183;28;20217;-67
2023/03/19 01:32:04;;;;;;;11.23;1.60;;;7.70;99.90;;;;;;5112001;28;20507;-66
2023/03/19 01:34:30;;;;;;;5.80;1.00;;;7.70;99.90;;;;;;5111965;28;20720;-67
2023/03/19 01:36:56;;;;;;;4.63;0.97;;;7.70;99.90;;;;;;5124004;27;20277;-67
2023/03/19 01:39:21;;;;;;;5.77;0.90;;;7.60;99.90;;;;;;5132531;27;20195;-67
2023/03/19 01:41:47;;;;;;;7.03;1.23;;;7.60;99.90;;;;;;5132624;27;20170;-67
2023/03/19 01:44:27;;;;;;;5.70;1.10;;;7.50;99.90;;;;;;5132672;27;20173;-67
2023/03/19 01:46:54;;;;;;;6.30;1.13;;;7.50;99.90;;;;;;5132544;27;20656;-66
2023/03/19 01:49:22;;;;;;;9.00;1.50;;;7.60;99.90;;;;;;5131923;27;20678;-66
2023/03/19 01:51:48;;;;;;;7.37;1.10;;;7.50;99.90;;;;;;5111345;28;20167;-66
2023/03/19 01:54:17;;;;;;;8.83;0.90;;;7.50;99.90;;;;;;5110819;28;20228;-66
2023/03/19 01:56:45;;;;;;;9.70;1.30;;;7.50;99.90;;;;;;5118282;27;20182;-66
2023/03/19 01:59:20;;;;;;;7.80;1.23;;;7.50;99.90;;;;;;5120810;27;20183;-66
2023/03/19 02:02:00;;;;;;;10.13;1.57;;;7.60;99.90;;;;;;5110918;27;20183;-66
2023/03/19 02:04:27;;;;;;;5.67;1.00;;;7.50;99.90;;;;;;5117128;27;20181;-66
2023/03/19 02:06:55;;;;;;;8.83;1.70;;;7.50;99.90;;;;;;5130760;27;20172;-66
2023/03/19 02:09:22;;;;;;;6.80;1.27;;;7.40;99.90;;;;;;5128748;27;20330;-66
2023/03/19 02:11:49;;;;;;;6.97;1.50;;;7.40;99.90;;;;;;5115984;27;20178;-65
2023/03/19 02:14:15;;;;;;;9.83;1.40;;;7.30;99.90;;;;;;5112119;27;20206;-66
2023/03/19 02:16:41;;;;;;;8.50;1.40;;;7.30;99.90;;;;;;5130232;27;20174;-65
2023/03/19 02:19:11;;;;;;;8.87;1.40;;;7.30;99.90;;;;;;5114472;27;20437;-65
2023/03/19 02:21:36;;;;;;;4.83;1.23;;;7.50;99.90;;;;;;5126987;27;20197;-65
2023/03/19 02:24:34;;;;;;;9.57;1.60;;;7.40;99.90;;;;;;5131424;27;20174;-65
2023/03/19 02:27:00;;;;;;;11.20;1.27;;;7.40;99.90;;;;;;5102500;27;20183;-65
2023/03/19 02:29:26;;;;;;;8.30;1.40;;;8.00;99.90;;;;;;5111086;28;20179;-65
2023/03/19 02:31:52;;;;;;;10.87;1.63;;;7.80;99.90;;;;;;5111018;28;20232;-65
2023/03/19 02:34:20;;;;;;;10.53;1.50;;;7.30;99.90;;;;;;5110860;28;20175;-65
2023/03/19 02:37:17;;;;;;;6.47;1.57;;;7.20;99.90;;;;;;5099949;28;20776;-65
2023/03/19 02:39:50;;;;;;;7.03;1.50;;;7.30;99.90;;;;;;5131032;28;20171;-66
2023/03/19 02:42:18;;;;;;;10.50;1.70;;;7.10;99.90;;;;;;5130869;28;20194;-66
2023/03/19 02:44:45;;;;;;;10.20;1.63;;;7.10;99.90;;;;;;5131538;28;20288;-66
2023/03/19 02:47:11;;;;;;;10.93;1.27;;;7.10;99.90;;;;;;5131639;28;20162;-66
2023/03/19 02:49:36;;;;;;;19.53;2.00;;;7.20;99.90;;;;;;5130034;28;20172;-66
2023/03/19 02:52:02;;;;;;;9.67;1.60;;;7.30;99.90;;;;;;5131336;28;20179;-66
2023/03/19 02:54:27;;;;;;;8.80;1.57;;;7.30;99.90;;;;;;5113119;28;20222;-66
2023/03/19 02:56:53;;;;;;;7.13;1.70;;;7.30;99.90;;;;;;5131167;27;20223;-66
2023/03/19 02:59:19;;;;;;;8.70;1.53;;;7.30;99.90;;;;;;5120717;27;20194;-65
2023/03/19 03:01:45;;;;;;;11.03;1.40;;;7.30;99.90;;;;;;5115697;27;20262;-66
2023/03/19 03:04:11;;;;;;;14.13;2.00;;;7.30;99.90;;;;;;5119155;27;20254;-66
2023/03/19 03:06:37;;;;;;;8.97;1.80;;;7.20;99.90;;;;;;5132186;27;20558;-66
2023/03/19 03:09:03;;;;;;;9.53;1.90;;;7.20;99.90;;;;;;5125733;27;20198;-66
2023/03/19 03:11:28;;;;;;;11.77;1.73;;;7.20;99.90;;;;;;5114615;28;20196;-66
2023/03/19 03:13:54;;;;;;;12.80;1.67;;;7.20;99.90;;;;;;5114298;28;20254;-66
2023/03/19 03:16:20;;;;;;;9.23;1.70;;;7.20;99.90;;;;;;5123220;27;20206;-66
2023/03/19 03:18:46;;;;;;;14.87;1.87;;;7.20;99.90;;;;;;5129576;27;20214;-67
2023/03/19 03:21:11;;;;;;;13.70;1.67;;;7.10;99.90;;;;;;5128079;27;20182;-66
2023/03/19 03:23:37;;;;;;;8.63;1.70;;;;;;;;;;5099174;28;20209;-66
2023/03/19 03:26:03;;;;;;;20.93;1.97;;;7.10;99.90;;;;;;5117356;27;20213;-66
2023/03/19 03:28:28;;;;;;;11.93;1.47;;;7.00;99.90;;;;;;5124730;27;20193;-66
2023/03/19 03:30:58;;;;;;;7.73;1.80;;;7.00;99.90;;;;;;5123156;27;20187;-66
2023/03/19 03:33:24;;;;;;;14.20;1.80;;;7.00;99.90;;;;;;5128232;27;20242;-66
2023/03/19 03:35:50;;;;;;;9.97;1.70;;;7.00;99.90;;;;;;5116487;27;20646;-65
2023/03/19 03:38:17;;;;;;;10.60;1.70;;;7.00;99.90;;;;;;5117913;27;20221;-65
2023/03/19 03:40:42;;;;;;;11.47;1.70;;;7.00;99.90;;;;;;5124361;27;20228;-64
2023/03/19 03:43:09;;;;;;;6.93;1.37;;;7.00;99.90;;;;;;5135337;27;20182;-64
2023/03/19 03:45:35;;;;;;;12.67;1.63;;;7.10;99.90;;;;;;5133159;27;20163;-66
2023/03/19 03:48:01;;;;;;;11.77;1.73;;;7.10;99.90;;;;;;5133654;27;20715;-64
2023/03/19 03:50:26;;;;;;;15.43;2.00;;;7.00;99.90;;;;;;5133846;27;20255;-64
2023/03/19 03:52:52;;;;;;;10.40;1.37;;;6.80;99.90;;;;;;5134081;27;20265;-64
2023/03/19 03:55:17;;;;;;;9.17;1.67;;;7.00;99.90;;;;;;5134019;27;20581;-64
2023/03/19 03:57:43;;;;;;;9.77;1.70;;;6.90;99.90;;;;;;5133837;27;20210;-64
2023/03/19 04:00:10;;;;;;;8.27;1.80;;;6.90;99.90;;;;;;5133322;27;20570;-64
2023/03/19 04:02:35;;;;;;;14.40;2.30;;;6.90;99.90;;;;;;5133857;27;20177;-64
2023/03/19 04:05:01;;;;;;;11.00;1.63;;;7.00;99.90;;;;;;5134362;27;20167;-64
2023/03/19 04:07:26;;;;;;;10.03;1.43;;;6.70;99.90;;;;;;5132990;27;20696;-64
2023/03/19 04:09:52;;;;;;;7.90;2.13;;;7.10;99.90;;;;;;5097317;27;20183;-64
2023/03/19 04:12:18;;;;;;;11.30;1.60;;;7.10;99.90;;;;;;5126138;27;20302;-64
2023/03/19 04:14:44;;;;;;;11.13;2.00;;;7.10;99.90;;;;;;5125246;27;20278;-64
2023/03/19 04:17:09;;;;;;;12.43;1.27;;;7.20;99.90;;;;;;5128389;27;20649;-65
2023/03/19 04:19:35;;;;;;;11.43;2.00;;;7.20;99.90;;;;;;5116212;27;20183;-64
2023/03/19 04:22:02;;;;;;;11.87;1.83;;;7.20;99.90;;;;;;5113090;27;20187;-64
2023/03/19 04:24:28;;;;;;;12.23;1.73;;;7.10;99.90;;;;;;5130743;27;20251;-64
2023/03/19 04:26:54;;;;;;;11.97;1.90;;;7.00;99.90;;;;;;5112684;28;20718;-65
2023/03/19 04:29:19;;;;;;;8.67;1.80;;;7.20;99.90;;;;;;5124178;27;20170;-65
2023/03/19 04:31:45;;;;;;;8.97;1.77;;;7.20;99.90;;;;;;5126541;27;20573;-65
2023/03/19 04:34:11;;;;;;;14.20;1.37;;;7.10;99.90;;;;;;5126508;27;20555;-65
2023/03/19 04:36:37;;;;;;;11.00;1.70;;;7.10;99.90;;;;;;5124983;27;20167;-65
2023/03/19 04:39:04;;;;;;;16.43;2.00;;;7.10;99.90;;;;;;5112615;28;20268;-65
2023/03/19 04:41:29;;;;;;;20.87;2.40;;;7.10;99.90;;;;;;5112742;28;20186;-65
2023/03/19 04:43:55;;;;;;;10.90;1.90;;;7.00;99.90;;;;;;5094161;28;20174;-65
2023/03/19 04:46:21;;;;;;;13.07;1.97;;;7.00;99.90;;;;;;5112730;27;20179;-65
2023/03/19 04:48:46;;;;;;;8.60;1.57;;;7.00;99.90;;;;;;5113218;27;20590;-65
2023/03/19 04:51:12;;;;;;;15.37;2.07;;;7.00;99.90;;;;;;5113665;27;20187;-65
2023/03/19 04:53:38;;;;;;;10.43;1.87;;;;;;;;;;5128777;27;20261;-65
2023/03/19 04:56:05;;;;;;;18.03;2.00;;;7.20;99.90;;;;;;5131976;27;20696;-65
2023/03/19 04:58:31;;;;;;;9.17;1.97;;;7.10;99.90;;;;;;5131867;27;20872;-65
2023/03/19 05:00:57;;;;;;;12.37;1.50;;;7.00;99.90;;;;;;5122533;27;20272;-64
2023/03/19 05:03:23;;;;;;;17.40;1.90;;;7.00;99.90;;;;;;5112768;27;20179;-64
2023/03/19 05:05:48;;;;;;;11.63;1.80;;;7.00;99.90;;;;;;5108889;27;20551;-65
2023/03/19 05:08:14;;;;;;;14.20;2.17;;;6.90;99.90;;;;;;5106992;27;20187;-64
2023/03/19 05:10:39;;;;;;;9.63;1.87;;;7.00;99.90;;;;;;5132008;27;20171;-65
2023/03/19 05:13:06;;;;;;;15.47;2.33;;;6.90;99.90;;;;;;5131866;27;20181;-65
2023/03/19 05:15:32;;;;;;;15.23;2.47;;;;;;;;;;5112791;27;20202;-66
2023/03/19 05:17:58;;;;;;;13.33;2.27;;;7.00;99.90;;;;;;5112724;27;20242;-65
2023/03/19 05:20:24;;;;;;;10.10;2.20;;;7.00;99.90;;;;;;5124154;27;20259;-66
2023/03/19 05:22:51;;;;;;;14.83;1.83;;;6.90;99.90;;;;;;5124575;27;20179;-66
2023/03/19 05:25:18;;;;;;;15.87;2.00;;;;;;;;;;5113733;27;20649;-65
2023/03/19 05:27:44;;;;;;;12.90;1.83;;;6.90;99.90;;;;;;5127137;27;20242;-67
2023/03/19 05:30:11;;;;;;;13.60;2.17;;;6.90;99.90;;;;;;5111141;28;20179;-67
2023/03/19 05:32:37;;;;;;;17.07;2.33;;;;;;;;;;5111571;27;20167;-67
2023/03/19 05:35:04;;;;;;;13.53;1.90;;;6.80;99.90;;;;;;5115769;27;20220;-65
2023/03/19 05:37:30;;;;;;;15.20;1.77;;;6.70;99.90;;;;;;5117931;27;20237;-65
2023/03/19 05:39:56;;;;;;;14.87;2.17;;;6.70;99.90;;;;;;5132205;27;20171;-65
2023/03/19 05:42:21;;;;;;;8.07;1.93;;;6.60;99.90;;;;;;5130436;27;20243;-65
2023/03/19 05:44:47;;;;;;;9.37;1.90;;;6.60;99.90;;;;;;5114130;27;20248;-66
2023/03/19 05:47:13;;;;;;;12.37;2.20;;;6.40;99.90;;;;;;5123054;27;20186;-65
2023/03/19 05:49:39;;;;;;;6.30;1.83;;;6.30;99.90;;;;;;5118758;27;20202;-65
2023/03/19 05:52:05;;;;;;;9.50;1.90;;;6.30;99.90;;;;;;5130815;27;20170;-65
2023/03/19 05:54:30;;;;;;;9.00;1.97;;;6.10;99.90;;;;;;5125294;27;20583;-65
2023/03/19 05:56:56;;;;;;;9.77;1.73;;;6.10;99.90;;;;;;5117745;27;20250;-65
2023/03/19 05:59:21;;;;;;;11.20;2.03;;;6.10;99.90;;;;;;5119914;27;20187;-65
2023/03/19 06:01:48;;;;;;;11.13;2.03;;;6.10;99.90;;;;;;5111796;27;20649;-66
2023/03/19 06:04:14;;;;;;;9.63;1.63;;;6.10;99.90;;;;;;5109087;27;20222;-65
2023/03/19 06:06:40;;;;;;;15.00;2.50;;;6.10;99.90;;;;;;5123091;27;20182;-65
2023/03/19 06:09:05;;;;;;;6.20;1.77;;;6.20;99.90;;;;;;5103272;28;20219;-66
2023/03/19 06:11:31;;;;;;;10.10;1.73;;;6.20;99.90;;;;;;5119901;27;20202;-66
2023/03/19 06:13:56;;;;;;;10.60;1.93;;;6.20;99.90;;;;;;5123078;27;20606;-66
2023/03/19 06:16:22;;;;;;;8.30;1.77;;;6.20;99.90;;;;;;5127980;27;20174;-66
2023/03/19 06:18:48;;;;;;;15.97;2.10;;;6.30;99.90;;;;;;5118186;27;20218;-65
2023/03/19 06:21:13;;;;;;;11.20;1.80;;;6.30;99.90;;;;;;5131031;27;20206;-65
2023/03/19 06:23:39;;;;;;;10.37;1.90;;;6.20;99.90;;;;;;5131129;27;20182;-65
2023/03/19 06:26:05;;;;;;;15.40;2.23;;;6.30;99.90;;;;;;5128015;27;20180;-65
2023/03/19 06:28:31;;;;;;;11.30;2.07;;;;;;;;;;5111016;28;20217;-65
2023/03/19 06:30:57;;;;;;;13.67;2.30;;;6.30;99.90;;;;;;5113353;28;20178;-65
2023/03/19 06:33:26;;;;;;;15.23;1.93;;;8.00;99.90;;;;;;5128228;27;20319;-65
2023/03/19 06:35:52;;;;;;;11.30;2.20;;;6.30;99.90;;;;;;5131506;28;20226;-65
2023/03/19 06:38:18;;;;;;;10.93;1.90;;;6.40;99.90;;;;;;5120591;28;20271;-65
2023/03/19 06:40:43;;;;;;;7.23;1.80;;;6.40;99.90;;;;;;5123877;28;20162;-65
2023/03/19 06:43:09;;;;;;;12.10;2.07;;;6.40;99.90;;;;;;5128267;28;20178;-65
2023/03/19 06:45:35;;;;;;;9.07;1.60;;;;;;;;;;5130533;28;20768;-65
2023/03/19 06:48:01;;;;;;;9.47;1.83;;;6.50;99.90;;;;;;5094548;28;20196;-66
2023/03/19 06:50:26;;;;;;;11.20;2.00;;;6.50;99.90;;;;;;5122948;28;20185;-66
2023/03/19 06:52:52;;;;;;;13.47;2.40;;;6.60;99.90;;;;;;5111330;28;20205;-65
2023/03/19 06:55:19;;;;;;;11.30;2.33;;;6.60;99.90;;;;;;5131484;28;20221;-65
2023/03/19 06:57:48;;;;;;;12.13;2.53;;;6.50;99.90;;;;;;5113351;28;20206;-65
2023/03/19 07:00:14;;;;;;;12.63;2.33;;;6.70;99.90;;;;;;5128954;28;20167;-65
2023/03/19 07:02:40;;;;;;;14.83;2.20;;;;;;;;;;5125753;28;20187;-65
2023/03/19 07:05:07;;;;;;;9.53;1.77;;;6.60;99.90;;;;;;5128738;28;20200;-65
2023/03/19 07:07:32;;;;;;;15.33;1.90;;;6.60;99.90;;;;;;5130304;28;20531;-65
2023/03/19 07:09:58;;;;;;;17.43;2.17;;;6.60;99.90;;;;;;5117100;28;20170;-65
2023/03/19 07:12:26;;;;;;;9.33;2.00;;;6.70;99.90;;;;;;5127815;28;20171;-65
2023/03/19 07:14:53;;;;;;;15.20;2.37;;;6.80;99.90;;;;;;5116167;28;20476;-65
2023/03/19 07:17:19;;;;;;;10.90;1.60;;;6.60;99.90;;;;;;5116164;28;20271;-65
2023/03/19 07:19:44;;;;;;;17.03;1.90;;;6.90;99.90;;;;;;5122979;28;20645;-64
2023/03/19 07:22:10;;;;;;;11.83;1.73;;;7.00;99.90;;;;;;5131119;28;20629;-64
2023/03/19 07:24:36;;;;;;;16.43;1.90;;;7.00;99.90;;;;;;5117502;28;20190;-64
2023/03/19 07:27:02;;;;;;;12.73;2.03;;;7.10;99.90;;;;;;5110521;28;20179;-64
2023/03/19 07:29:27;;;;;;;16.03;2.10;;;7.10;99.90;;;;;;5116973;28;20207;-64
2023/03/19 07:31:53;;;;;;;20.67;2.30;;;;;;;;;;5110634;28;20179;-65
2023/03/19 07:34:19;;;;;;;12.70;2.00;;;7.30;99.90;;;;;;5109308;28;20646;-65
2023/03/19 07:36:46;;;;;;;9.50;1.90;;;7.40;99.90;;;;;;5109267;28;20210;-65
2023/03/19 07:39:11;;;;;;;9.47;1.63;;;7.40;99.90;;;;;;5112570;28;20693;-65
2023/03/19 07:41:37;;;;;;;6.40;1.20;;;7.60;99.90;;;;;;5126632;28;20180;-65
2023/03/19 07:44:03;;;;;;;12.17;1.40;;;7.60;99.90;;;;;;5120240;27;20637;-65
2023/03/19 07:46:28;;;;;;;11.03;1.63;;;7.70;99.90;;;;;;5132984;27;20194;-65
2023/03/19 07:48:54;;;;;;;7.57;1.13;;;7.70;99.90;;;;;;5122982;27;20835;-65
2023/03/19 07:51:20;;;;;;;11.67;1.60;;;7.60;99.90;;;;;;5126583;27;20225;-65
2023/03/19 07:53:45;;;;;;;10.10;1.40;;;7.70;99.90;;;;;;5126313;27;20199;-65
2023/03/19 07:56:11;;;;;;;16.03;1.87;;;7.70;99.90;;;;;;5125038;27;20230;-68
2023/03/19 07:58:37;;;;;;;7.77;1.67;;;6.00;99.90;;;;;;5127264;27;20615;-68
2023/03/19 08:01:03;;;;;;;12.80;1.73;;;7.90;99.90;;;;;;5131484;27;20190;-68
2023/03/19 08:03:28;;;;;;;13.33;1.77;;;8.00;99.90;;;;;;5118274;27;20183;-68
2023/03/19 08:05:54;;;;;;;17.00;2.10;;;8.10;99.90;;;;;;5124712;27;20175;-67
2023/03/19 08:08:20;;;;;;;16.93;1.70;;;8.20;99.90;;;;;;5119748;27;20655;-68
2023/03/19 08:10:47;;;;;;;13.00;1.67;;;8.20;99.90;;;;;;5122790;27;20175;-68
2023/03/19 08:13:13;;;;;;;13.13;1.63;;;8.30;99.90;;;;;;5130871;27;20279;-68
2023/03/19 08:15:39;;;;;;;13.97;2.83;;;8.40;99.90;;;;;;5128792;27;20251;-68
2023/03/19 08:18:05;;;;;;;9.10;1.50;;;10.50;99.90;;;;;;5126955;27;20247;-67
2023/03/19 08:20:31;;;;;;;15.87;1.80;;;;;;;;;;5110201;27;20182;-72
2023/03/19 08:22:57;;;;;;;13.47;2.30;;;8.60;99.90;;;;;;5128453;27;20232;-66
2023/03/19 08:25:23;;;;;;;11.53;2.47;;;8.50;99.90;;;;;;5118038;27;20664;-67
2023/03/19 08:27:49;;;;;;;11.20;2.10;;;8.70;99.90;;;;;;5130877;27;20255;-67
2023/03/19 08:30:15;;;;;;;20.27;2.20;;;8.70;99.90;;;;;;5131263;27;20225;-68
2023/03/19 08:32:43;;;;;;;11.67;2.10;;;8.80;99.90;;;;;;5129361;27;20212;-67
2023/03/19 08:35:10;;;;;;;11.33;1.80;;;9.00;99.90;;;;;;5125627;27;20181;-68
2023/03/19 08:37:36;;;;;;;18.20;2.10;;;;;;;;;;5132847;27;20833;-68
2023/03/19 08:40:03;;;;;;;15.67;2.00;;;9.20;99.90;;;;;;5133018;27;20253;-68
2023/03/19 08:42:29;;;;;;;10.73;1.87;;;9.40;99.90;;;;;;5133079;27;20182;-67
2023/03/19 08:44:55;;;;;;;13.23;1.60;;;;;;;;;;5133448;27;20239;-67
2023/03/19 08:47:23;;;;;;;17.43;2.20;;;12.40;99.90;;;;;;5119539;27;20206;-67
2023/03/19 08:49:52;;;;;;;16.27;2.23;;;13.90;99.90;;;;;;5121051;27;20243;-67
2023/03/19 08:52:18;;;;;;;15.73;2.03;;;15.30;99.90;;;;;;5132856;27;20604;-68
2023/03/19 08:54:44;;;;;;;16.20;2.60;;;16.40;99.90;;;;;;5130106;27;20235;-69
2023/03/19 08:57:10;;;;;;;11.90;3.20;;;16.80;99.90;;;;;;5129087;27;20170;-71
2023/03/19 08:59:36;;;;;;;13.75;2.17;;;16.90;99.90;;;;;;5114793;27;20663;-70
2023/03/19 09:02:02;;;;;;;10.77;2.13;;;16.50;99.90;;;;;;5130220;27;20709;-70
2023/03/19 09:04:28;;;;;;;12.40;2.40;;;15.90;99.90;;;;;;5118095;27;20401;-69
2023/03/19 09:06:54;;;;;;;9.60;1.90;;;14.60;99.90;;;;;;5114184;27;20262;-68
2023/03/19 09:09:22;;;;;;;11.82;2.35;;;13.50;99.90;;;;;;5123746;27;20167;-69
2023/03/19 09:11:48;;;;;;;14.93;2.47;;;13.30;99.90;;;;;;5132420;27;20181;-70
2023/03/19 09:14:15;;;;;;;18.30;2.22;;;13.00;99.90;;;;;;5132095;27;20167;-69
2023/03/19 09:16:42;;;;;;;13.52;2.20;;;14.00;99.90;;;;;;5123212;27;20186;-68
2023/03/19 09:19:08;;;;;;;10.13;2.00;;;16.10;99.90;;;;;;5132761;27;20202;-68
2023/03/19 09:21:34;;;;;;;12.07;2.40;;;16.20;99.90;;;;;;5123631;27;20167;-68
2023/03/19 09:24:00;;;;;;;13.23;1.75;;;16.20;99.90;;;;;;5116957;27;20175;-68
2023/03/19 09:26:26;;;;;;;9.25;1.90;;;15.60;99.90;;;;;;5124308;27;20177;-68
2023/03/19 09:28:51;;;;;;;9.38;1.67;;;15.30;99.90;;;;;;5128055;27;20167;-68
2023/03/19 09:31:17;;;;;;;9.15;1.80;;;14.50;99.90;;;;;;5120624;27;20174;-68
2023/03/19 09:33:42;;;;;;;10.15;1.90;;;13.90;99.90;;;;;;5118961;27;20262;-68
2023/03/19 09:36:08;;;;;;;7.65;2.05;;;13.40;99.90;;;;;;5123719;27;20185;-68
2023/03/19 09:38:34;;;;;;;10.05;1.77;;;13.20;99.90;;;;;;5128193;27;20683;-68
2023/03/19 09:41:37;;;;;;;11.10;2.67;;;13.60;99.90;;;;;;5130507;27;20205;-69
2023/03/19 09:44:05;;;;;;;7.85;1.85;;;14.90;99.90;;;;;;5072308;27;20187;-69
2023/03/19 09:46:43;;;;;;;9.32;1.73;;;15.70;99.90;;;;;;5119912;27;20181;-68
2023/03/19 09:49:15;;;;;;;13.65;2.47;;;16.30;99.90;;;;;;5128661;27;20202;-69
2023/03/19 09:51:47;;;;;;;15.90;2.25;;;15.90;99.90;;;;;;5130314;27;20178;-68
2023/03/19 09:54:26;;;;;;;10.93;2.45;;;14.50;99.90;;;;;;5111185;27;20285;-68
2023/03/19 09:56:52;;;;;;;13.90;1.98;;;15.50;99.90;;;;;;5110734;28;20178;-69
2023/03/19 09:59:20;;;;;;;15.93;2.58;;;15.60;99.90;;;;;;5113446;27;20306;-69
2023/03/19 10:01:52;;;;;;;12.65;2.33;;;15.80;99.90;;;;;;5111806;27;20182;-69
2023/03/19 10:04:59;;;;;;;15.32;2.40;;;17.30;99.90;;;;;;5109970;28;20175;-69
2023/03/19 10:07:45;;;;;;;11.95;2.13;;;18.00;99.90;;;;;;5117742;27;20166;-69
2023/03/19 10:10:43;;;;;;;10.10;1.70;;;18.20;99.90;;;;;;5123245;27;20189;-69
2023/03/19 10:13:45;;;;;;;11.65;1.95;;;18.00;99.90;;;;;;5130349;27;20629;-69
2023/03/19 10:16:21;;;;;;;7.05;1.48;;;15.90;99.90;;;;;;5088845;27;20652;-69
2023/03/19 10:18:50;;;;;;;13.23;2.38;;;14.40;99.90;;;;;;5131193;27;20292;-70
2023/03/19 10:21:45;;;;;;;13.70;2.10;;;13.50;99.90;;;;;;5130872;27;20194;-69
2023/03/19 10:24:20;;;;;;;7.30;1.30;;;13.20;99.90;;;;;;5126615;27;20202;-70
2023/03/19 10:26:46;;;;;;;14.80;2.53;;;13.10;99.90;;;;;;5125124;27;20639;-70
2023/03/19 10:29:18;;;;;;;7.72;1.58;;;13.00;99.90;;;;;;5131324;27;20258;-70
2023/03/19 10:32:04;;;;;;;14.95;2.53;;;13.20;99.90;;;;;;5131293;27;20570;-69
2023/03/19 10:34:36;;;;;;;7.63;1.73;;;13.30;99.90;;;;;;5110807;28;20195;-69
2023/03/19 10:37:22;;;;;;;10.20;1.90;;;14.90;99.90;;;;;;5108200;28;20166;-69
2023/03/19 10:39:50;;;;;;;10.95;1.88;;;16.90;99.90;;;;;;5112510;28;20859;-70
2023/03/19 10:42:40;;;;;;;9.52;2.22;;;18.30;99.90;;;;;;5123298;28;20229;-69
2023/03/19 10:45:26;;;;;;;8.68;2.25;;;18.90;99.90;;;;;;5130119;28;20620;-70
2023/03/19 10:47:52;;;;;;;11.32;2.20;;;19.60;99.90;;;;;;5095463;28;20189;-70
2023/03/19 10:50:22;;;;;;;10.13;1.95;;;20.20;99.90;;;;;;5111078;28;20171;-70
2023/03/19 10:52:57;;;;;;;12.00;2.55;;;20.40;99.90;;;;;;5110878;28;20181;-70
2023/03/19 10:55:25;;;;;;;10.00;1.92;;;20.20;99.90;;;;;;5110361;28;20242;-70
2023/03/19 10:58:02;;;;;;;11.55;2.30;;;19.00;99.90;;;;;;5110744;28;20351;-70
2023/03/19 11:00:34;;;;;;;9.15;2.08;;;19.70;99.90;;;;;;5110901;28;20171;-71
2023/03/19 11:03:03;;;;;;;10.60;2.40;;;19.40;99.90;;;;;;5110759;28;20167;-70
2023/03/19 11:05:32;;;;;;;10.40;2.38;;;20.80;99.90;;;;;;5109557;28;20220;-70
2023/03/19 11:08:01;;;;;;;13.35;2.47;;;20.60;99.90;;;;;;5110215;28;20175;-70
2023/03/19 11:10:30;;;;;;;10.77;2.30;;;20.60;99.90;;;;;;5123508;28;20227;-70
2023/03/19 11:13:18;;;;;;;8.10;2.20;;;20.80;99.90;;;;;;5131317;28;20294;-71
2023/03/19 11:15:47;;;;;;;16.48;2.78;;;20.30;99.90;;;;;;5112226;28;20168;-70
2023/03/19 11:18:26;;;;;;;11.32;2.40;;;20.60;99.90;;;;;;5133301;27;20293;-71
2023/03/19 11:20:57;;;;;;;11.20;2.28;;;21.10;99.90;;;;;;5136568;27;20235;-71
2023/03/19 11:23:27;;;;;;;8.75;2.17;;;21.40;99.40;;;;;;5133513;27;20189;-71
2023/03/19 11:25:54;;;;;;;10.93;2.15;;;18.80;99.90;;;;;;5132088;27;20175;-70
2023/03/19 11:28:25;;;;;;;9.52;2.00;;;16.90;99.90;;;;;;5105264;28;20224;-70
2023/03/19 11:31:15;;;;;;;10.40;2.03;;;16.70;99.90;;;;;;5122455;27;20653;-70
2023/03/19 11:34:08;;;;;;;10.55;2.05;;;15.70;99.90;;;;;;5126748;27;20179;-71
2023/03/19 11:37:02;;;;;;;9.35;1.77;;;16.40;99.90;;;;;;5125788;27;20697;-71
2023/03/19 11:39:58;;;;;;;9.52;2.25;;;18.40;99.90;;;;;;5115549;28;20191;-72
2023/03/19 11:42:47;;;;;;;11.65;2.47;;;20.00;99.90;;;;;;5115428;28;20665;-71
2023/03/19 11:45:40;;;;;;;10.50;2.15;;;21.20;99.90;;;;;;5114734;28;20316;-71
2023/03/19 11:48:38;;;;;;;9.57;1.92;;;21.60;99.90;;;;;;5114301;28;20637;-73
2023/03/19 11:51:10;;;;;;;11.90;2.38;;;22.40;57.20;;;;;;5095916;28;20199;-72
2023/03/19 11:53:38;;;;;;;9.98;1.95;;;22.60;57.70;;;;;;5114262;28;20163;-73
2023/03/19 11:56:32;;;;;;;9.45;2.08;;;22.20;37.80;;;;;;5114040;28;20214;-72
2023/03/19 11:59:08;;;;;;;10.52;2.25;;;22.10;44.40;;;;;;5114125;28;20203;-71
2023/03/19 12:01:52;;;;;;;10.23;2.28;;;22.60;44.40;;;;;;5114267;28;20173;-73
2023/03/19 12:04:49;;;;;;;10.45;2.40;;;21.70;24.80;;;;;;5114100;28;20242;-73
2023/03/19 12:07:55;;;;;;;13.13;2.60;;;21.60;34.90;;;;;;5114452;27;20182;-73
2023/03/19 12:10:33;;;;;;;9.52;2.38;;;21.70;31.40;;;;;;5113934;28;20232;-72
2023/03/19 12:13:47;;;;;;;8.40;2.00;;;18.80;31.30;;;;;;5116617;27;20254;-73
2023/03/19 12:16:31;;;;;;;9.27;2.47;;;19.10;46.90;;;;;;5097030;27;20254;-72
2023/03/19 12:19:02;;;;;;;9.63;2.85;;;18.70;70.90;;;;;;5124881;27;20202;-72
2023/03/19 12:21:48;;;;;;;11.60;2.92;;;19.50;84.30;;;;;;5128549;27;20602;-72
2023/03/19 12:24:32;;;;;;;12.07;3.03;;;19.50;90.40;;;;;;5134268;27;20177;-72
2023/03/19 12:27:24;;;;;;;13.02;3.45;;;17.50;99.20;;;;;;5134203;27;20285;-72
2023/03/19 12:30:17;;;;;;;9.35;2.42;;;16.90;99.90;;;;;;5133073;27;20166;-73
2023/03/19 12:33:10;;;;;;;12.80;2.42;;;16.60;99.90;;;;;;5131523;27;20167;-72
2023/03/19 12:35:40;;;;;;;14.65;2.78;;;15.80;99.90;;;;;;5113440;28;20663;-71
2023/03/19 12:38:15;;;;;;;12.43;2.33;;;15.10;99.90;;;;;;5112958;28;20225;-71
2023/03/19 12:41:13;;;;;;;12.57;2.35;;;15.20;99.90;;;;;;5113403;28;20170;-71
2023/03/19 12:43:48;;;;;;;14.07;2.85;;;15.30;99.90;;;;;;5099678;28;20222;-71
2023/03/19 12:46:19;;;;;;;10.73;1.90;;;15.10;99.90;;;;;;5112854;28;20659;-71
2023/03/19 12:48:52;;;;;;;11.93;2.47;;;15.60;99.90;;;;;;5128995;27;20179;-71
2023/03/19 12:51:27;;;;;;;13.45;2.88;;;15.30;99.90;;;;;;5113394;28;20171;-71
2023/03/19 12:54:02;;;;;;;10.13;2.28;;;15.50;99.90;;;;;;5113056;28;20637;-70
2023/03/19 12:56:50;;;;;;;13.38;2.20;;;15.30;99.90;;;;;;5094503;28;20273;-71
2023/03/19 12:59:23;;;;;;;9.20;2.05;;;16.90;99.90;;;;;;5112670;28;20206;-71
2023/03/19 13:02:23;;;;;;;5.95;1.58;;;17.30;99.90;;;;;;5112866;28;20594;-72
2023/03/19 13:05:22;;;;;;;15.65;2.53;;;17.00;99.90;;;;;;5113934;27;20250;-72
2023/03/19 13:08:04;;;;;;;10.15;2.03;;;16.40;99.90;;;;;;5110527;28;20257;-72